Time;durP1;ratioP1;P1;durP2;ratioP2;P2;SDS_P1;SDS_P2;PMS_P1;PMS_P2;Temp;Humidity;BMP_temperature;BMP_pressure;BME280_temperature;BME280_humidity;BME280_pressure;Samples;Min_cycle;Max_cycle;Signal;HPM_P1;HPM_P2
2023/06/04 00:00:19;;;;;;;25.83;11.70;;;;;;;;;;5002094;28;20049;-64
2023/06/04 00:02:46;;;;;;;23.02;11.82;;;;;;;;;;5020496;28;20430;-62
2023/06/04 00:05:12;;;;;;;21.98;12.18;;;;;;;;;;5019532;28;20392;-63
2023/06/04 00:07:38;;;;;;;20.85;11.25;;;;;;;;;;4994986;28;20038;-63
2023/06/04 00:10:05;;;;;;;23.90;13.68;;;;;;;;;;5009725;28;20053;-63
2023/06/04 00:12:31;;;;;;;23.33;12.38;;;;;;;;;;5012714;28;20044;-62
2023/06/04 00:14:57;;;;;;;23.98;12.00;;;;;;;;;;4995998;28;20377;-64
2023/06/04 00:17:23;;;;;;;23.58;11.63;;;;;;;;;;5013771;28;20050;-64
2023/06/04 00:19:49;;;;;;;22.30;11.52;;;;;;;;;;5031304;28;20033;-63
2023/06/04 00:22:15;;;;;;;22.73;10.88;;;;;;;;;;5021406;28;20033;-63
2023/06/04 00:24:41;;;;;;;18.48;10.27;;;;;;;;;;5022013;28;20060;-63
2023/06/04 00:27:09;;;;;;;19.75;10.52;;;;;;;;;;5029141;28;20029;-63
2023/06/04 00:29:36;;;;;;;18.73;10.15;;;;;;;;;;5007551;28;20041;-63
2023/06/04 00:32:02;;;;;;;18.50;9.50;;;;;;;;;;5016630;28;20040;-64
2023/06/04 00:34:28;;;;;;;19.63;10.57;;;;;;;;;;4996193;28;20057;-63
2023/06/04 00:36:54;;;;;;;18.58;9.60;;;;;;;;;;5000962;28;20034;-63
2023/06/04 00:39:21;;;;;;;17.33;9.82;;;;;;;;;;5004238;28;20040;-63
2023/06/04 00:41:47;;;;;;;20.75;10.45;;;;;;;;;;5017359;28;20030;-63
2023/06/04 00:44:13;;;;;;;18.35;9.10;;;;;;;;;;5002443;28;20045;-63
2023/06/04 00:46:39;;;;;;;16.75;9.30;;;;;;;;;;5026072;28;20044;-63
2023/06/04 00:49:05;;;;;;;20.80;8.68;;;;;;;;;;5011891;28;20037;-63
2023/06/04 00:51:32;;;;;;;19.02;8.95;;;;;;;;;;5028936;28;20425;-63
2023/06/04 00:54:01;;;;;;;16.10;8.60;;;;;;;;;;5013716;28;20054;-63
2023/06/04 00:56:28;;;;;;;16.70;8.33;;;;;;;;;;4999407;28;20036;-63
2023/06/04 00:58:54;;;;;;;14.27;7.88;;;;;;;;;;5011430;28;20300;-63
2023/06/04 01:01:52;;;;;;;18.33;8.93;;;;;;;;;;5024433;28;20041;-63
2023/06/04 01:04:27;;;;;;;16.40;7.78;;;;;;;;;;4999553;28;20519;-63
2023/06/04 01:06:57;;;;;;;14.55;8.23;;;;;;;;;;4985828;28;20862;-62
2023/06/04 01:09:26;;;;;;;17.23;8.20;;;;;;;;;;5015397;28;20048;-63
2023/06/04 01:11:52;;;;;;;17.52;8.95;;;;;;;;;;5004537;28;20423;-63
2023/06/04 01:14:18;;;;;;;16.05;7.55;;;;;;;;;;5009277;28;20203;-63
2023/06/04 01:16:48;;;;;;;12.98;7.65;;;;;;;;;;5015630;28;20072;-63
2023/06/04 01:19:59;;;;;;;15.57;8.23;;;;;;;;;;5018989;28;20049;-63
2023/06/04 01:22:40;;;;;;;16.08;7.40;;;;;;;;;;5007312;28;20038;-63
2023/06/04 01:25:26;;;;;;;16.38;7.57;;;;;;;;;;5030895;28;20041;-63
2023/06/04 01:27:55;;;;;;;15.30;7.18;;;;;;;;;;5009442;28;20041;-63
2023/06/04 01:30:28;;;;;;;13.27;7.35;;;;;;;;;;5003396;28;20073;-63
2023/06/04 01:32:54;;;;;;;14.07;7.43;;;;;;;;;;5009251;28;20045;-62
2023/06/04 01:35:21;;;;;;;12.73;7.03;;;;;;;;;;5017749;28;20517;-63
2023/06/04 01:37:48;;;;;;;16.20;7.90;;;;;;;;;;5019107;28;20030;-63
2023/06/04 01:40:15;;;;;;;13.13;7.65;;;;;;;;;;5014198;28;20384;-62
2023/06/04 01:42:42;;;;;;;12.50;7.10;;;;;;;;;;5019883;28;20050;-62
2023/06/04 01:45:09;;;;;;;13.48;7.38;;;;;;;;;;5021773;28;20059;-63
2023/06/04 01:47:36;;;;;;;12.02;6.60;;;;;;;;;;5020000;28;20398;-63
2023/06/04 01:50:05;;;;;;;13.18;7.75;;;;;;;;;;5008502;28;20037;-63
2023/06/04 01:52:32;;;;;;;13.65;7.28;;;;;;;;;;5013652;28;20658;-62
2023/06/04 01:54:59;;;;;;;13.93;7.43;;;;;;;;;;5019578;28;20049;-63
2023/06/04 01:57:25;;;;;;;12.60;6.90;;;;;;;;;;5018299;28;20040;-64
2023/06/04 01:59:51;;;;;;;15.57;7.57;;;;;;;;;;5020664;28;20387;-63
2023/06/04 02:02:18;;;;;;;16.65;8.18;;;;;;;;;;5016143;28;20057;-63
2023/06/04 02:04:44;;;;;;;17.23;7.25;;;;;;;;;;4999180;28;20033;-63
2023/06/04 02:07:13;;;;;;;12.52;6.60;;;;;;;;;;5001818;28;20070;-63
2023/06/04 02:09:40;;;;;;;11.90;6.32;;;;;;;;;;5022953;28;20049;-62
2023/06/04 02:12:07;;;;;;;12.32;6.32;;;;;;;;;;5021808;28;20117;-62
2023/06/04 02:14:33;;;;;;;15.05;6.35;;;;;;;;;;4990503;28;20037;-62
2023/06/04 02:17:00;;;;;;;10.20;6.13;;;;;;;;;;5012414;28;20507;-61
2023/06/04 02:19:27;;;;;;;10.85;5.95;;;;;;;;;;5018228;28;20038;-63
2023/06/04 02:21:53;;;;;;;11.80;6.60;;;;;;;;;;5020567;28;20040;-61
2023/06/04 02:24:20;;;;;;;11.10;6.05;;;;;;;;;;5026456;28;20038;-62
2023/06/04 02:26:47;;;;;;;12.75;5.57;;;;;;;;;;4995143;28;20033;-63
2023/06/04 02:29:13;;;;;;;11.95;6.63;;;;;;;;;;5004625;28;20045;-63
2023/06/04 02:31:40;;;;;;;13.23;6.22;;;;;;;;;;5021253;28;20037;-63
2023/06/04 02:34:06;;;;;;;11.13;6.13;;;;;;;;;;5011595;28;20057;-62
2023/06/04 02:36:32;;;;;;;16.15;7.05;;;;;;;;;;5017186;28;20398;-61
2023/06/04 02:38:58;;;;;;;11.07;6.38;;;;;;;;;;5024025;28;20048;-63
2023/06/04 02:41:25;;;;;;;12.07;6.05;;;;;;;;;;5025325;28;20427;-63
2023/06/04 02:43:51;;;;;;;12.15;5.75;;;;;;;;;;5002865;28;20076;-63
2023/06/04 02:46:20;;;;;;;12.50;5.40;;;;;;;;;;5003152;28;20045;-62
2023/06/04 02:48:46;;;;;;;11.32;5.70;;;;;;;;;;5032430;28;20407;-62
2023/06/04 02:51:12;;;;;;;13.38;5.47;;;;;;;;;;5011582;28;20045;-62
2023/06/04 02:53:39;;;;;;;10.48;5.47;;;;;;;;;;5021902;28;20034;-61
2023/06/04 02:56:06;;;;;;;10.23;5.57;;;;;;;;;;5019010;28;20049;-61
2023/06/04 02:58:38;;;;;;;11.02;5.45;;;;;;;;;;5003591;28;20061;-62
2023/06/04 03:01:05;;;;;;;12.35;5.03;;;;;;;;;;5006157;28;20056;-60
2023/06/04 03:03:31;;;;;;;11.15;4.78;;;;;;;;;;5007328;28;20034;-64
2023/06/04 03:05:59;;;;;;;9.75;4.50;;;;;;;;;;5028468;28;20084;-63
2023/06/04 03:08:25;;;;;;;8.43;5.05;;;;;;;;;;5005998;28;20038;-62
2023/06/04 03:10:52;;;;;;;11.05;5.25;;;;;;;;;;4998786;28;20036;-63
2023/06/04 03:13:19;;;;;;;9.57;4.70;;;;;;;;;;5014457;28;20042;-63
2023/06/04 03:15:48;;;;;;;13.20;6.68;;;;;;;;;;5012846;28;20054;-62
2023/06/04 03:18:14;;;;;;;8.63;5.00;;;;;;;;;;4994765;28;20075;-62
2023/06/04 03:20:40;;;;;;;10.65;4.95;;;;;;;;;;4995314;28;20046;-62
2023/06/04 03:23:06;;;;;;;10.80;5.53;;;;;;;;;;5011217;28;20034;-62
2023/06/04 03:25:32;;;;;;;9.80;5.20;;;;;;;;;;5026039;28;20523;-63
2023/06/04 03:27:59;;;;;;;9.77;5.25;;;;;;;;;;5006730;28;20053;-62
2023/06/04 03:30:25;;;;;;;8.48;5.05;;;;;;;;;;5024550;28;20060;-62
2023/06/04 03:32:58;;;;;;;11.85;4.95;;;;;;;;;;5002321;28;20049;-61
2023/06/04 03:35:24;;;;;;;16.80;5.55;;;;;;;;;;5024584;28;20057;-63
2023/06/04 03:37:50;;;;;;;8.35;4.25;;;;;;;;;;4998036;28;20044;-62
2023/06/04 03:40:17;;;;;;;9.88;5.15;;;;;;;;;;5005317;28;20041;-63
2023/06/04 03:42:45;;;;;;;15.07;5.13;;;;;;;;;;5016307;28;20048;-62
2023/06/04 03:45:13;;;;;;;10.65;4.80;;;;;;;;;;5008926;28;20041;-63
2023/06/04 03:47:39;;;;;;;9.77;4.90;;;;;;;;;;4997297;28;20033;-62
2023/06/04 03:50:07;;;;;;;12.27;4.97;;;;;;;;;;5004637;28;20033;-63
2023/06/04 03:52:33;;;;;;;10.05;4.80;;;;;;;;;;5016249;28;20045;-62
2023/06/04 03:55:01;;;;;;;11.55;6.07;;;;;;;;;;4998406;28;20054;-63
2023/06/04 03:57:30;;;;;;;11.18;4.70;;;;;;;;;;5006180;28;20045;-62
2023/06/04 03:59:57;;;;;;;13.15;5.00;;;;;;;;;;4993150;28;20407;-62
2023/06/04 04:02:23;;;;;;;10.45;4.60;;;;;;;;;;5005798;28;20060;-63
2023/06/04 04:04:50;;;;;;;9.50;4.70;;;;;;;;;;5010933;28;20411;-63
2023/06/04 04:07:17;;;;;;;12.75;5.05;;;;;;;;;;5001060;28;20044;-63
2023/06/04 04:09:44;;;;;;;10.82;4.82;;;;;;;;;;5001442;28;20034;-61
2023/06/04 04:12:10;;;;;;;10.82;4.95;;;;;;;;;;5015734;28;20419;-63
2023/06/04 04:14:37;;;;;;;9.48;5.10;;;;;;;;;;5010878;28;20049;-64
2023/06/04 04:17:04;;;;;;;11.10;5.10;;;;;;;;;;4997981;28;20056;-62
2023/06/04 04:19:31;;;;;;;11.02;4.70;;;;;;;;;;5004698;28;20038;-62
2023/06/04 04:21:57;;;;;;;9.25;4.68;;;;;;;;;;5009846;28;20410;-62
2023/06/04 04:24:27;;;;;;;9.60;5.18;;;;;;;;;;4995901;28;20061;-62
2023/06/04 04:26:58;;;;;;;10.45;4.97;;;;;;;;;;4994318;28;20400;-62
2023/06/04 04:29:27;;;;;;;7.70;4.65;;;;;;;;;;5000500;28;20030;-63
2023/06/04 04:31:56;;;;;;;10.57;4.55;;;;;;;;;;5009301;28;20045;-63
2023/06/04 04:34:25;;;;;;;8.55;4.55;;;;;;;;;;5000388;28;20055;-63
2023/06/04 04:36:52;;;;;;;9.57;5.05;;;;;;;;;;5013817;28;20037;-61
2023/06/04 04:39:26;;;;;;;9.07;4.70;;;;;;;;;;5011688;28;20046;-64
2023/06/04 04:41:55;;;;;;;11.00;4.38;;;;;;;;;;4999061;28;20376;-63
2023/06/04 04:44:21;;;;;;;8.85;4.57;;;;;;;;;;5002098;28;20116;-62
2023/06/04 04:46:48;;;;;;;9.63;4.30;;;;;;;;;;5009340;28;20060;-62
2023/06/04 04:49:15;;;;;;;10.20;4.72;;;;;;;;;;5011725;28;20056;-63
2023/06/04 04:51:41;;;;;;;8.73;4.80;;;;;;;;;;5012156;28;20040;-63
2023/06/04 04:54:07;;;;;;;11.80;5.43;;;;;;;;;;4999724;28;20087;-64
2023/06/04 04:56:35;;;;;;;9.88;4.80;;;;;;;;;;5013529;28;20041;-61
2023/06/04 04:59:01;;;;;;;9.32;4.50;;;;;;;;;;5011349;28;20034;-62
2023/06/04 05:01:28;;;;;;;9.18;4.53;;;;;;;;;;5003021;28;20041;-61
2023/06/04 05:03:54;;;;;;;11.30;4.97;;;;;;;;;;4998384;28;20033;-63
2023/06/04 05:06:21;;;;;;;12.00;6.78;;;;;;;;;;5011389;28;20041;-63
2023/06/04 05:08:47;;;;;;;10.30;6.53;;;;;;;;;;4993020;28;20030;-60
2023/06/04 05:11:15;;;;;;;11.18;5.85;;;;;;;;;;5007314;28;20045;-63
2023/06/04 05:13:42;;;;;;;10.07;4.88;;;;;;;;;;5010535;28;20042;-63
2023/06/04 05:16:11;;;;;;;17.63;5.65;;;;;;;;;;5012854;28;20045;-63
2023/06/04 05:18:41;;;;;;;11.82;5.22;;;;;;;;;;5009030;28;20029;-63
2023/06/04 05:21:08;;;;;;;10.43;5.43;;;;;;;;;;5009199;28;20049;-64
2023/06/04 05:23:39;;;;;;;10.07;5.07;;;;;;;;;;5008483;28;20049;-63
2023/06/04 05:26:07;;;;;;;12.68;5.40;;;;;;;;;;5004959;28;20041;-62
2023/06/04 05:28:33;;;;;;;10.73;6.20;;;;;;;;;;4997269;28;20057;-61
2023/06/04 05:31:00;;;;;;;13.88;6.05;;;;;;;;;;4996213;28;20056;-64
2023/06/04 05:33:31;;;;;;;21.42;7.93;;;;;;;;;;5029011;28;20398;-64
2023/06/04 05:36:00;;;;;;;15.18;6.68;;;;;;;;;;5005527;28;20407;-63
2023/06/04 05:38:32;;;;;;;18.52;7.63;;;;;;;;;;5005913;28;20034;-61
2023/06/04 05:41:03;;;;;;;17.40;6.53;;;;;;;;;;4999706;28;20050;-63
2023/06/04 05:43:33;;;;;;;14.60;6.63;;;;;;;;;;5003076;28;20038;-62
2023/06/04 05:46:00;;;;;;;16.55;7.63;;;;;;;;;;5009291;28;20044;-62
2023/06/04 05:48:26;;;;;;;17.17;7.22;;;;;;;;;;4995995;28;20042;-62
2023/06/04 05:50:52;;;;;;;15.35;7.85;;;;;;;;;;5001453;28;20402;-62
2023/06/04 05:53:18;;;;;;;17.58;7.80;;;;;;;;;;5004472;28;20049;-63
2023/06/04 05:55:46;;;;;;;18.15;7.32;;;;;;;;;;5005226;28;20045;-63
2023/06/04 05:58:13;;;;;;;15.02;7.22;;;;;;;;;;5010956;28;20052;-63
2023/06/04 06:00:39;;;;;;;18.27;7.38;;;;;;;;;;4998873;28;20403;-63
2023/06/04 06:03:06;;;;;;;12.70;6.30;;;;;;;;;;5000745;28;20503;-62
2023/06/04 06:05:40;;;;;;;13.38;6.35;;;;;;;;;;5000095;28;20058;-62
2023/06/04 06:08:06;;;;;;;13.77;6.57;;;;;;;;;;4999029;28;20385;-62
2023/06/04 06:10:33;;;;;;;12.93;6.15;;;;;;;;;;4999158;28;20068;-62
2023/06/04 06:13:00;;;;;;;14.00;6.97;;;;;;;;;;5011178;28;20038;-62
2023/06/04 06:15:28;;;;;;;17.05;6.80;;;;;;;;;;5008731;28;20056;-63
2023/06/04 06:17:55;;;;;;;13.20;6.65;;;;;;;;;;4987709;28;20469;-64
2023/06/04 06:20:21;;;;;;;13.90;6.35;;;;;;;;;;5020361;28;20498;-61
2023/06/04 06:22:48;;;;;;;14.95;6.70;;;;;;;;;;5011046;28;20050;-62
2023/06/04 06:25:15;;;;;;;15.25;6.30;;;;;;;;;;5008804;28;20518;-62
2023/06/04 06:27:48;;;;;;;11.10;6.22;;;;;;;;;;5014434;28;20045;-63
2023/06/04 06:30:16;;;;;;;16.92;7.35;;;;;;;;;;5001833;28;20049;-63
2023/06/04 06:32:42;;;;;;;15.02;6.30;;;;;;;;;;5014680;28;20034;-62
2023/06/04 06:35:08;;;;;;;13.88;6.07;;;;;;;;;;5015163;28;20051;-63
2023/06/04 06:37:34;;;;;;;11.32;6.10;;;;;;;;;;5028907;28;20037;-62
2023/06/04 06:40:00;;;;;;;15.88;7.45;;;;;;;;;;5039886;28;20159;-62
2023/06/04 06:42:32;;;;;;;13.82;6.40;;;;;;;;;;5018531;28;20052;-62
2023/06/04 06:44:58;;;;;;;13.13;6.85;;;;;;;;;;5025824;28;20029;-62
2023/06/04 06:47:24;;;;;;;13.23;7.10;;;;;;;;;;5025931;28;20033;-62
2023/06/04 06:49:50;;;;;;;14.02;7.10;;;;;;;;;;5019016;28;20029;-63
2023/06/04 06:52:19;;;;;;;16.65;7.45;;;;;;;;;;5018008;28;20036;-63
2023/06/04 06:54:46;;;;;;;14.70;7.07;;;;;;;;;;5008075;28;20443;-62
2023/06/04 06:57:13;;;;;;;14.90;7.10;;;;;;;;;;5016744;28;20582;-63
2023/06/04 06:59:39;;;;;;;16.83;7.95;;;;;;;;;;4997121;28;20419;-61
2023/06/04 07:02:06;;;;;;;15.95;7.63;;;;;;;;;;5019291;28;20048;-60
2023/06/04 07:04:32;;;;;;;10.18;5.82;;;;;;;;;;5021273;28;20039;-59
2023/06/04 07:06:58;;;;;;;12.00;5.90;;;;;;;;;;5022877;28;20037;-61
2023/06/04 07:09:24;;;;;;;11.13;6.15;;;;;;;;;;5018078;28;20036;-62
2023/06/04 07:11:50;;;;;;;15.40;7.68;;;;;;;;;;5016772;28;20050;-61
2023/06/04 07:14:16;;;;;;;17.88;8.35;;;;;;;;;;5017717;28;20045;-62
2023/06/04 07:16:43;;;;;;;18.90;8.00;;;;;;;;;;5007255;28;20041;-61
2023/06/04 07:19:09;;;;;;;13.93;7.28;;;;;;;;;;5012836;28;20033;-62
2023/06/04 07:21:35;;;;;;;18.17;8.13;;;;;;;;;;5025134;28;20486;-62
2023/06/04 07:24:01;;;;;;;15.32;7.80;;;;;;;;;;5024425;28;20056;-63
2023/06/04 07:26:30;;;;;;;16.08;8.27;;;;;;;;;;5021015;28;20045;-61
2023/06/04 07:28:57;;;;;;;19.53;8.23;;;;;;;;;;5019010;28;20053;-62
2023/06/04 07:31:23;;;;;;;14.40;7.78;;;;;;;;;;5013689;28;20491;-62
2023/06/04 07:33:49;;;;;;;17.02;8.13;;;;;;;;;;5019853;28;20415;-62
2023/06/04 07:36:16;;;;;;;17.45;8.35;;;;;;;;;;5017313;28;20060;-62
2023/06/04 07:38:42;;;;;;;15.13;7.45;;;;;;;;;;5026684;28;20406;-63
2023/06/04 07:41:09;;;;;;;14.57;7.70;;;;;;;;;;5014271;28;20060;-63
2023/06/04 07:43:35;;;;;;;17.80;7.90;;;;;;;;;;5026483;28;20049;-63
2023/06/04 07:46:05;;;;;;;15.93;7.68;;;;;;;;;;5018510;28;20041;-61
2023/06/04 07:48:31;;;;;;;25.98;7.25;;;;;;;;;;5027846;28;20033;-62
2023/06/04 07:50:58;;;;;;;27.63;7.28;;;;;;;;;;4995998;28;20053;-62
2023/06/04 07:53:24;;;;;;;18.33;6.95;;;;;;;;;;5004805;28;20487;-62
2023/06/04 07:55:51;;;;;;;23.90;7.70;;;;;;;;;;5006146;28;20034;-65
2023/06/04 07:58:17;;;;;;;15.60;7.07;;;;;;;;;;5027713;28;20037;-62
2023/06/04 08:00:43;;;;;;;14.27;6.97;;;;;;;;;;5023819;28;20033;-62
2023/06/04 08:03:10;;;;;;;17.05;7.00;;;;;;;;;;5024679;28;20074;-61
2023/06/04 08:05:36;;;;;;;20.88;7.00;;;;;;;;;;5031231;28;20056;-63
2023/06/04 08:08:03;;;;;;;16.00;6.68;;;;;;;;;;5015816;28;20056;-64
2023/06/04 08:10:30;;;;;;;12.73;6.95;;;;;;;;;;5019324;28;20042;-63
2023/06/04 08:12:56;;;;;;;14.75;6.93;;;;;;;;;;5009987;28;20045;-62
2023/06/04 08:15:23;;;;;;;13.35;6.88;;;;;;;;;;5014637;28;20057;-62
2023/06/04 08:18:09;;;;;;;15.85;7.35;;;;;;;;;;4997700;28;20052;-62
2023/06/04 08:20:40;;;;;;;23.70;7.40;;;;;;;;;;5025961;28;20120;-62
2023/06/04 08:23:24;;;;;;;15.02;7.00;;;;;;;;;;5012143;28;20056;-62
2023/06/04 08:26:10;;;;;;;16.33;6.97;;;;;;;;;;5013860;28;20049;-62
2023/06/04 08:28:49;;;;;;;18.90;7.28;;;;;;;;;;5010543;28;20045;-65
2023/06/04 08:31:16;;;;;;;15.73;7.13;;;;;;;;;;5015920;28;20037;-63
2023/06/04 08:33:53;;;;;;;15.27;7.93;;;;;;;;;;5018417;28;20053;-62
2023/06/04 08:36:32;;;;;;;17.13;7.45;;;;;;;;;;5003542;28;20060;-63
2023/06/04 08:38:58;;;;;;;16.33;7.22;;;;;;;;;;5025428;28;20053;-64
2023/06/04 08:41:26;;;;;;;16.52;7.45;;;;;;;;;;5030475;28;20046;-64
2023/06/04 08:43:55;;;;;;;15.20;6.93;;;;;;;;;;5019139;28;20061;-62
2023/06/04 08:46:22;;;;;;;;;;;;;;;;;;5014883;28;20041;-63
2023/06/04 08:48:50;;;;;;;14.82;7.10;;;;;;;;;;5011428;28;19914;-62
2023/06/04 08:51:16;;;;;;;19.50;8.52;;;;;;;;;;5015796;28;20037;-64
2023/06/04 08:53:47;;;;;;;16.77;7.65;;;;;;;;;;5024048;28;20113;-63
2023/06/04 08:56:13;;;;;;;13.80;7.43;;;;;;;;;;5016368;28;20050;-64
2023/06/04 08:58:41;;;;;;;17.67;7.55;;;;;;;;;;5017351;28;20455;-62
2023/06/04 09:01:07;;;;;;;16.02;6.93;;;;;;;;;;5017965;28;20046;-62
2023/06/04 09:03:37;;;;;;;22.50;8.10;;;;;;;;;;5019450;28;20034;-63
2023/06/04 09:06:03;;;;;;;16.25;7.30;;;;;;;;;;5010665;28;20412;-61
2023/06/04 09:08:34;;;;;;;24.00;8.07;;;;;;;;;;5015097;28;20041;-63
2023/06/04 09:11:04;;;;;;;19.67;7.97;;;;;;;;;;5015967;28;20033;-65
2023/06/04 09:13:32;;;;;;;18.88;7.30;;;;;;;;;;5017434;28;20049;-66
2023/06/04 09:16:00;;;;;;;17.02;7.63;;;;;;;;;;4993113;28;20038;-66
2023/06/04 09:18:26;;;;;;;14.18;8.00;;;;;;;;;;5004508;28;20037;-66
2023/06/04 09:21:07;;;;;;;16.88;8.45;;;;;;;;;;5001836;28;20048;-66
2023/06/04 09:23:44;;;;;;;16.15;8.23;;;;;;;;;;5014706;28;20490;-66
2023/06/04 09:26:10;;;;;;;19.15;8.38;;;;;;;;;;5000948;28;20073;-65
2023/06/04 09:28:46;;;;;;;17.98;8.18;;;;;;;;;;5016633;28;20057;-65
2023/06/04 09:31:16;;;;;;;16.77;8.68;;;;;;;;;;5023708;28;20034;-66
2023/06/04 09:33:44;;;;;;;14.48;7.57;;;;;;;;;;5006528;28;20054;-65
2023/06/04 09:36:11;;;;;;;18.25;8.15;;;;;;;;;;5010676;28;20056;-64
2023/06/04 09:38:38;;;;;;;16.20;7.95;;;;;;;;;;4997246;28;20054;-64
2023/06/04 09:41:11;;;;;;;18.03;8.67;;;;;;;;;;5012587;28;20049;-64
2023/06/04 09:43:37;;;;;;;24.88;9.25;;;;;;;;;;5028002;28;20042;-65
2023/06/04 09:46:14;;;;;;;15.68;8.60;;;;;;;;;;5023121;28;20049;-64
2023/06/04 09:48:41;;;;;;;20.65;8.48;;;;;;;;;;5018470;28;20041;-66
2023/06/04 09:51:10;;;;;;;15.85;8.70;;;;;;;;;;5025881;28;20045;-62
2023/06/04 09:53:37;;;;;;;;;;;;;;;;;;5023241;28;20045;-62
2023/06/04 09:56:04;;;;;;;17.60;8.38;;;;;;;;;;5022925;28;19917;-64
2023/06/04 09:58:31;;;;;;;19.30;9.93;;;;;;;;;;4997677;28;20041;-66
2023/06/04 10:00:59;;;;;;;20.02;9.43;;;;;;;;;;5022535;28;20033;-65
2023/06/04 10:03:27;;;;;;;18.88;9.32;;;;;;;;;;5021978;28;20037;-67
2023/06/04 10:05:55;;;;;;;18.02;8.82;;;;;;;;;;4987842;28;20043;-62
2023/06/04 10:08:23;;;;;;;19.40;10.00;;;;;;;;;;5019220;28;20034;-64
2023/06/04 10:11:00;;;;;;;18.65;9.10;;;;;;;;;;5015392;28;20048;-64
2023/06/04 10:13:31;;;;;;;23.08;9.10;;;;;;;;;;5019685;28;20046;-66
2023/06/04 10:15:59;;;;;;;20.15;9.50;;;;;;;;;;5022914;28;20408;-66
2023/06/04 10:18:29;;;;;;;;;;;;;;;;;;5027710;28;20423;-67
2023/06/04 10:20:56;;;;;;;18.60;10.30;;;;;;;;;;5014456;28;19917;-66
2023/06/04 10:23:24;;;;;;;21.38;9.85;;;;;;;;;;5016854;28;20726;-64
2023/06/04 10:25:54;;;;;;;19.48;10.00;;;;;;;;;;5016380;28;20041;-64
2023/06/04 10:28:21;;;;;;;21.27;10.73;;;;;;;;;;5018308;28;20523;-66
2023/06/04 10:30:50;;;;;;;20.67;10.40;;;;;;;;;;5003301;28;20048;-65
2023/06/04 10:33:24;;;;;;;19.27;9.52;;;;;;;;;;5017387;28;20038;-65
2023/06/04 10:35:54;;;;;;;17.35;10.15;;;;;;;;;;5020912;28;20030;-67
2023/06/04 10:38:22;;;;;;;26.40;10.88;;;;;;;;;;5014202;28;20057;-67
2023/06/04 10:40:48;;;;;;;22.92;10.75;;;;;;;;;;5021877;28;20061;-65
2023/06/04 10:43:18;;;;;;;23.00;10.80;;;;;;;;;;5016000;28;20438;-65
2023/06/04 10:45:45;;;;;;;19.50;10.77;;;;;;;;;;5002143;28;20498;-66
2023/06/04 10:48:13;;;;;;;20.55;10.55;;;;;;;;;;5023170;28;20419;-65
2023/06/04 10:50:52;;;;;;;19.17;10.70;;;;;;;;;;5014415;28;20029;-65
2023/06/04 10:53:19;;;;;;;19.85;10.27;;;;;;;;;;5022916;28;20041;-64
2023/06/04 10:55:47;;;;;;;18.30;10.23;;;;;;;;;;5017593;28;20033;-63
2023/06/04 10:58:13;;;;;;;19.05;10.52;;;;;;;;;;5013865;28;20048;-62
2023/06/04 11:00:40;;;;;;;20.70;10.30;;;;;;;;;;5017558;28;20034;-63
2023/06/04 11:03:07;;;;;;;21.05;10.38;;;;;;;;;;5019630;28;20061;-63
2023/06/04 11:05:44;;;;;;;30.52;10.93;;;;;;;;;;5017035;28;20049;-62
2023/06/04 11:08:13;;;;;;;18.27;10.57;;;;;;;;;;5021670;28;20411;-62
2023/06/04 11:10:44;;;;;;;19.55;10.32;;;;;;;;;;5027097;28;20064;-63
2023/06/04 11:13:11;;;;;;;19.13;10.00;;;;;;;;;;5015707;28;20037;-63
2023/06/04 11:15:45;;;;;;;18.45;9.95;;;;;;;;;;5025173;28;20032;-62
2023/06/04 11:18:16;;;;;;;22.45;11.35;;;;;;;;;;5024204;28;20029;-62
2023/06/04 11:20:47;;;;;;;20.17;10.88;;;;;;;;;;5020956;28;20037;-64
2023/06/04 11:23:14;;;;;;;18.52;10.10;;;;;;;;;;5012954;28;20048;-64
2023/06/04 11:25:43;;;;;;;18.17;10.15;;;;;;;;;;5021101;28;20025;-64
2023/06/04 11:28:21;;;;;;;24.85;10.55;;;;;;;;;;5022736;28;20030;-65
2023/06/04 11:31:05;;;;;;;;;;;;;;;;;;5000791;28;20042;-63
2023/06/04 11:33:47;;;;;;;20.98;11.15;;;;;;;;;;5015143;28;20387;-63
2023/06/04 11:36:30;;;;;;;18.88;10.02;;;;;;;;;;5024466;28;20033;-64
2023/06/04 11:38:58;;;;;;;20.67;10.95;;;;;;;;;;5024655;28;20050;-64
2023/06/04 11:41:27;;;;;;;19.77;10.87;;;;;;;;;;4998791;28;20498;-64
2023/06/04 11:43:54;;;;;;;20.65;10.85;;;;;;;;;;5026467;28;20052;-63
2023/06/04 11:46:21;;;;;;;20.98;10.65;;;;;;;;;;5018127;28;20070;-66
2023/06/04 11:48:47;;;;;;;17.13;10.88;;;;;;;;;;5012460;28;20045;-62
2023/06/04 11:51:13;;;;;;;21.75;11.05;;;;;;;;;;5015181;28;20419;-67
2023/06/04 11:53:39;;;;;;;21.73;10.95;;;;;;;;;;5016984;28;20045;-64
2023/06/04 11:56:06;;;;;;;22.13;11.20;;;;;;;;;;5011171;28;20411;-64
2023/06/04 11:58:32;;;;;;;23.40;12.20;;;;;;;;;;5028553;28;20052;-62
2023/06/04 12:00:59;;;;;;;22.60;11.48;;;;;;;;;;5008614;28;20037;-63
2023/06/04 12:03:37;;;;;;;21.30;11.55;;;;;;;;;;5016188;28;20057;-63
2023/06/04 12:06:30;;;;;;;19.90;11.18;;;;;;;;;;5024860;28;20038;-64
2023/06/04 12:08:56;;;;;;;18.30;10.88;;;;;;;;;;5009688;28;20056;-62
2023/06/04 12:11:27;;;;;;;21.60;11.20;;;;;;;;;;5016605;28;20038;-65
2023/06/04 12:13:57;;;;;;;24.88;12.10;;;;;;;;;;5027202;28;20045;-66
2023/06/04 12:16:24;;;;;;;17.58;11.00;;;;;;;;;;5012706;28;20410;-66
2023/06/04 12:18:50;;;;;;;21.17;11.18;;;;;;;;;;5012291;28;20037;-66
2023/06/04 12:21:27;;;;;;;19.83;10.52;;;;;;;;;;5002161;28;20042;-67
2023/06/04 12:23:54;;;;;;;18.13;10.30;;;;;;;;;;5015447;28;20432;-65
2023/06/04 12:26:29;;;;;;;18.90;10.60;;;;;;;;;;5017204;28;20054;-65
2023/06/04 12:29:00;;;;;;;22.27;10.95;;;;;;;;;;5001618;28;20038;-65
2023/06/04 12:31:31;;;;;;;20.88;10.98;;;;;;;;;;5013300;28;20407;-65
2023/06/04 12:34:01;;;;;;;18.85;10.40;;;;;;;;;;5018245;28;20048;-65
2023/06/04 12:36:28;;;;;;;22.02;11.15;;;;;;;;;;5019077;28;20093;-65
2023/06/04 12:39:00;;;;;;;21.05;11.85;;;;;;;;;;5020850;28;20072;-65
2023/06/04 12:41:27;;;;;;;19.50;10.45;;;;;;;;;;5014274;28;20518;-65
2023/06/04 12:43:54;;;;;;;20.08;9.98;;;;;;;;;;5018745;28;20415;-65
2023/06/04 12:46:21;;;;;;;22.70;10.65;;;;;;;;;;5011267;28;20045;-66
2023/06/04 12:48:49;;;;;;;19.83;10.88;;;;;;;;;;5012088;28;20089;-65
2023/06/04 12:51:15;;;;;;;20.98;10.43;;;;;;;;;;5013557;28;20121;-66
2023/06/04 12:53:42;;;;;;;24.27;11.23;;;;;;;;;;5029032;28;20060;-66
2023/06/04 12:56:09;;;;;;;19.55;10.35;;;;;;;;;;5014076;28;20588;-66
2023/06/04 12:58:35;;;;;;;21.45;10.10;;;;;;;;;;5015551;28;20037;-66
2023/06/04 13:01:01;;;;;;;20.77;10.65;;;;;;;;;;5017529;28;20049;-66
2023/06/04 13:03:32;;;;;;;21.23;10.63;;;;;;;;;;5024238;28;20042;-66
2023/06/04 13:05:58;;;;;;;16.70;10.45;;;;;;;;;;5016091;28;20034;-66
2023/06/04 13:08:25;;;;;;;18.65;10.70;;;;;;;;;;5002511;28;20041;-66
2023/06/04 13:10:51;;;;;;;17.58;10.95;;;;;;;;;;5028998;28;20049;-66
2023/06/04 13:13:18;;;;;;;19.42;10.27;;;;;;;;;;5022985;28;20529;-65
2023/06/04 13:15:45;;;;;;;17.90;10.32;;;;;;;;;;5031051;28;20046;-66
2023/06/04 13:18:11;;;;;;;16.33;9.45;;;;;;;;;;5019352;28;20049;-66
2023/06/04 13:20:40;;;;;;;22.02;11.13;;;;;;;;;;5015362;28;20041;-65
2023/06/04 13:23:07;;;;;;;20.52;10.45;;;;;;;;;;5019305;28;20050;-65
2023/06/04 13:25:34;;;;;;;19.33;10.65;;;;;;;;;;5027730;28;20042;-65
2023/06/04 13:28:01;;;;;;;18.23;11.30;;;;;;;;;;5022055;28;20041;-65
2023/06/04 13:30:27;;;;;;;18.38;10.68;;;;;;;;;;5019399;28;20057;-65
2023/06/04 13:32:54;;;;;;;20.13;10.60;;;;;;;;;;5012626;28;20037;-65
2023/06/04 13:35:20;;;;;;;19.75;11.10;;;;;;;;;;5018828;28;20048;-65
2023/06/04 13:37:46;;;;;;;23.65;10.88;;;;;;;;;;5026940;28;20491;-65
2023/06/04 13:40:13;;;;;;;17.00;10.13;;;;;;;;;;5027983;28;20061;-65
2023/06/04 13:42:39;;;;;;;16.80;10.10;;;;;;;;;;5032577;28;20060;-65
2023/06/04 13:45:06;;;;;;;20.40;10.00;;;;;;;;;;5029890;28;20052;-65
2023/06/04 13:47:32;;;;;;;18.13;9.52;;;;;;;;;;5026796;28;20058;-65
2023/06/04 13:49:58;;;;;;;17.25;10.07;;;;;;;;;;5028471;28;20025;-66
2023/06/04 13:52:25;;;;;;;17.13;9.95;;;;;;;;;;5014109;28;20045;-65
2023/06/04 13:54:51;;;;;;;18.55;9.68;;;;;;;;;;5021240;28;20050;-65
2023/06/04 13:57:17;;;;;;;21.83;10.63;;;;;;;;;;5022125;28;20058;-65
2023/06/04 13:59:43;;;;;;;21.35;11.25;;;;;;;;;;4985762;28;20048;-65
2023/06/04 14:02:09;;;;;;;19.90;9.82;;;;;;;;;;5031195;28;20422;-65
2023/06/04 14:04:35;;;;;;;20.83;10.48;;;;;;;;;;5009141;28;20045;-65
2023/06/04 14:07:02;;;;;;;17.38;9.65;;;;;;;;;;5017802;28;20424;-67
2023/06/04 14:09:28;;;;;;;21.63;11.38;;;;;;;;;;5015601;28;20042;-66
2023/06/04 14:11:54;;;;;;;20.23;10.40;;;;;;;;;;5030732;28;20048;-67
2023/06/04 14:14:23;;;;;;;16.35;10.07;;;;;;;;;;5020791;28;20041;-67
2023/06/04 14:16:49;;;;;;;19.38;10.25;;;;;;;;;;5021329;28;20037;-67
2023/06/04 14:19:16;;;;;;;18.63;10.20;;;;;;;;;;5020279;28;20045;-66
2023/06/04 14:21:43;;;;;;;17.33;10.40;;;;;;;;;;5018274;28;20045;-67
2023/06/04 14:24:10;;;;;;;18.63;9.65;;;;;;;;;;5017570;28;20037;-67
2023/06/04 14:26:37;;;;;;;21.67;9.48;;;;;;;;;;5018500;28;20042;-67
2023/06/04 14:29:03;;;;;;;19.45;10.05;;;;;;;;;;5026279;28;20037;-67
2023/06/04 14:31:30;;;;;;;18.17;9.57;;;;;;;;;;5001500;28;20415;-67
2023/06/04 14:33:56;;;;;;;17.42;9.93;;;;;;;;;;5018527;28;20418;-67